Time;durP1;ratioP1;P1;durP2;ratioP2;P2;SDS_P1;SDS_P2;PMS_P1;PMS_P2;Temp;Humidity;BMP_temperature;BMP_pressure;BME280_temperature;BME280_humidity;BME280_pressure;Samples;Min_cycle;Max_cycle;Signal;HPM_P1;HPM_P2
2022/06/13 00:00:16;;;;;;;5.70;4.40;;;18.90;99.80;;;;;;4993597;28;20180;-87
2022/06/13 00:02:42;;;;;;;4.90;4.40;;;18.90;99.80;;;;;;4993659;28;20266;-88
2022/06/13 00:05:08;;;;;;;4.87;4.47;;;18.90;99.70;;;;;;4975640;28;20606;-90
2022/06/13 00:07:34;;;;;;;4.47;4.17;;;18.90;99.70;;;;;;4993684;28;20236;-88
2022/06/13 00:10:01;;;;;;;5.13;4.40;;;18.90;99.70;;;;;;4993749;28;20178;-90
2022/06/13 00:12:27;;;;;;;4.90;4.50;;;18.90;99.80;;;;;;4994118;28;20569;-87
2022/06/13 00:14:54;;;;;;;4.50;4.30;;;18.80;99.80;;;;;;4994210;28;20257;-90
2022/06/13 00:17:19;;;;;;;5.07;4.77;;;18.70;99.90;;;;;;5002461;28;20240;-88
2022/06/13 00:19:45;;;;;;;5.07;4.73;;;18.60;99.90;;;;;;4993276;28;20185;-86
2022/06/13 00:22:11;;;;;;;4.77;4.47;;;18.60;99.90;;;;;;5006794;28;20178;-90
2022/06/13 00:24:37;;;;;;;5.20;4.80;;;18.60;99.90;;;;;;4997477;28;20224;-91
2022/06/13 00:27:03;;;;;;;4.90;4.50;;;18.60;99.90;;;;;;4996812;28;20710;-90
2022/06/13 00:29:29;;;;;;;4.80;4.50;;;18.50;99.90;;;;;;4996857;28;20174;-87
2022/06/13 00:31:55;;;;;;;4.93;4.50;;;18.50;99.90;;;;;;4979538;28;20229;-90
2022/06/13 00:34:21;;;;;;;4.50;4.30;;;18.50;99.90;;;;;;4996375;28;20173;-89
2022/06/13 00:36:47;;;;;;;4.67;4.30;;;18.60;99.90;;;;;;4979425;28;20638;-86
2022/06/13 00:39:14;;;;;;;5.53;3.87;;;18.70;99.90;;;;;;4996763;28;20174;-91
2022/06/13 00:41:42;;;;;;;5.53;3.90;;;18.70;99.90;;;;;;4996516;28;20590;-90
2022/06/13 00:44:19;;;;;;;4.90;4.60;;;18.70;99.90;;;;;;4996298;28;20168;-85
2022/06/13 00:46:45;;;;;;;5.53;5.00;;;18.60;99.90;;;;;;4979203;28;20653;-89
2022/06/13 00:49:17;;;;;;;6.93;5.10;;;18.60;99.90;;;;;;4996392;28;20182;-86
2022/06/13 00:51:50;;;;;;;5.10;4.30;;;18.60;99.90;;;;;;4978817;28;20634;-88
2022/06/13 00:54:19;;;;;;;4.70;4.33;;;18.60;99.90;;;;;;4996400;28;20233;-90
2022/06/13 00:56:45;;;;;;;5.73;4.53;;;18.60;99.90;;;;;;4995965;28;20568;-86
2022/06/13 00:59:18;;;;;;;6.13;4.50;;;18.60;99.90;;;;;;4996477;28;20212;-90
2022/06/13 01:01:44;;;;;;;5.00;4.50;;;18.60;99.90;;;;;;4996099;28;20575;-88
2022/06/13 01:04:11;;;;;;;4.93;4.27;;;18.60;99.90;;;;;;4999557;28;20174;-87
2022/06/13 01:06:42;;;;;;;4.90;4.50;;;18.70;99.90;;;;;;5018558;28;20169;-90
2022/06/13 01:09:10;;;;;;;4.83;4.43;;;18.70;99.90;;;;;;5006901;28;20178;-88
2022/06/13 01:11:42;;;;;;;5.20;4.70;;;18.70;99.90;;;;;;4979099;28;20193;-90
2022/06/13 01:14:27;;;;;;;6.43;4.90;;;18.60;99.90;;;;;;4997101;28;20511;-92
2022/06/13 01:17:24;;;;;;;6.20;4.60;;;18.60;99.90;;;;;;4996004;28;20201;-91
2022/06/13 01:20:26;;;;;;;5.13;4.70;;;18.60;99.90;;;;;;4978716;28;20182;-91
2022/06/13 01:23:06;;;;;;;5.03;4.53;;;18.60;99.90;;;;;;4996136;28;20610;-88
2022/06/13 01:25:38;;;;;;;4.57;4.13;;;18.70;99.90;;;;;;4978263;28;20193;-90
2022/06/13 01:28:38;;;;;;;5.17;4.77;;;18.60;99.90;;;;;;4978735;28;20166;-91
2022/06/13 01:31:12;;;;;;;9.57;5.23;;;18.60;99.90;;;;;;4995963;28;20163;-90
2022/06/13 01:34:13;;;;;;;5.97;5.37;;;18.50;99.90;;;;;;4995139;28;20177;-90
2022/06/13 01:37:03;;;;;;;5.60;5.00;;;18.60;99.60;;;;;;4959297;28;20208;-91
2022/06/13 01:39:50;;;;;;;7.60;5.30;;;18.50;99.50;;;;;;5017844;28;20229;-86
2022/06/13 01:42:31;;;;;;;7.97;5.30;;;18.50;99.50;;;;;;5012262;28;20204;-91
2022/06/13 01:45:06;;;;;;;7.67;5.73;;;18.50;99.40;;;;;;4986249;28;20173;-91
2022/06/13 01:47:46;;;;;;;5.50;5.00;;;18.50;99.50;;;;;;4999106;28;20165;-90
2022/06/13 01:50:34;;;;;;;6.57;5.03;;;18.60;99.50;;;;;;4998472;28;20162;-91
2022/06/13 01:53:23;;;;;;;6.00;4.73;;;18.60;99.70;;;;;;4984299;28;20182;-89
2022/06/13 01:56:01;;;;;;;5.77;5.23;;;18.60;99.90;;;;;;5018523;28;20216;-87
2022/06/13 01:58:51;;;;;;;7.57;5.03;;;18.50;99.80;;;;;;5013454;28;20193;-91
2022/06/13 02:01:34;;;;;;;5.20;4.73;;;18.60;99.90;;;;;;4996776;28;20170;-91
2022/06/13 02:04:20;;;;;;;5.73;5.23;;;18.60;99.90;;;;;;5003143;28;20188;-91
2022/06/13 02:07:17;;;;;;;5.27;4.87;;;18.60;99.60;;;;;;4999814;28;20517;-84
2022/06/13 02:09:49;;;;;;;6.50;4.37;;;18.50;99.90;;;;;;5001924;28;20170;-89
2022/06/13 02:12:18;;;;;;;4.73;4.47;;;18.40;99.90;;;;;;5008571;28;20176;-88
2022/06/13 02:14:47;;;;;;;4.70;4.30;;;18.30;99.90;;;;;;4979015;28;20174;-89
2022/06/13 02:17:19;;;;;;;5.37;4.97;;;18.20;99.90;;;;;;4977658;28;20288;-91
2022/06/13 02:19:58;;;;;;;5.27;4.93;;;18.20;99.90;;;;;;4995406;28;20220;-90
2022/06/13 02:22:27;;;;;;;5.20;4.70;;;18.20;99.90;;;;;;4994848;28;20189;-90
2022/06/13 02:25:07;;;;;;;5.00;4.60;;;18.20;99.90;;;;;;4977209;28;20247;-88
2022/06/13 02:27:36;;;;;;;9.60;5.43;;;18.20;99.90;;;;;;4994544;28;20622;-89
2022/06/13 02:30:12;;;;;;;5.63;5.07;;;18.20;99.90;;;;;;4977292;28;20190;-88
2022/06/13 02:32:45;;;;;;;5.87;5.10;;;18.20;99.90;;;;;;4976871;28;20170;-91
2022/06/13 02:35:17;;;;;;;6.50;5.50;;;18.20;99.90;;;;;;4994520;28;20174;-91
2022/06/13 02:38:11;;;;;;;9.40;5.50;;;18.20;99.90;;;;;;4994458;28;20225;-92
2022/06/13 02:40:46;;;;;;;5.73;5.20;;;18.20;99.90;;;;;;4976716;28;20174;-89
2022/06/13 02:43:11;;;;;;;6.97;5.53;;;18.20;99.90;;;;;;4994180;28;20173;-86
2022/06/13 02:45:46;;;;;;;5.90;5.30;;;18.20;99.90;;;;;;4998515;28;20746;-89
2022/06/13 02:48:24;;;;;;;5.80;5.30;;;18.20;99.90;;;;;;4996638;28;20177;-88
2022/06/13 02:51:03;;;;;;;8.63;5.70;;;18.10;99.90;;;;;;5000091;28;20165;-91
2022/06/13 02:53:55;;;;;;;6.77;6.10;;;18.10;99.90;;;;;;5003576;28;20166;-92
2022/06/13 02:57:23;;;;;;;6.73;5.37;;;18.10;99.90;;;;;;4981132;28;20200;-90
2022/06/13 02:59:41;;;;;;;7.17;5.57;;;18.20;99.90;;;;;;4994137;28;20200;-91
2022/06/13 03:02:11;;;;;;;7.80;5.50;;;18.10;99.90;;;;;;4993902;28;20162;-89
2022/06/13 03:04:47;;;;;;;6.40;5.60;;;18.20;99.90;;;;;;4994144;28;20264;-88
2022/06/13 03:07:25;;;;;;;6.37;5.70;;;18.10;99.90;;;;;;4993825;28;20226;-92
2022/06/13 03:10:08;;;;;;;6.00;5.40;;;18.10;99.90;;;;;;4976740;28;20185;-91
2022/06/13 03:13:14;;;;;;;6.40;5.80;;;18.10;99.90;;;;;;4994062;28;20689;-87
2022/06/13 03:15:54;;;;;;;11.53;6.00;;;18.10;99.90;;;;;;4963787;28;20664;-88
2022/06/13 03:18:26;;;;;;;6.60;5.70;;;18.10;99.90;;;;;;4993638;28;20208;-88
2022/06/13 03:21:14;;;;;;;6.83;6.10;;;18.10;99.90;;;;;;4993799;28;20180;-87
2022/06/13 03:23:45;;;;;;;9.20;5.57;;;18.10;99.90;;;;;;4993292;28;20181;-91
2022/06/13 03:26:31;;;;;;;6.83;5.73;;;18.10;99.90;;;;;;4993988;28;20193;-91
2022/06/13 03:29:03;;;;;;;6.03;5.50;;;18.10;99.90;;;;;;4993678;28;20220;-90
2022/06/13 03:31:40;;;;;;;5.93;5.33;;;18.10;99.90;;;;;;4993570;28;20232;-91
2022/06/13 03:34:14;;;;;;;8.37;5.60;;;18.00;99.90;;;;;;4994010;28;20161;-91
2022/06/13 03:37:09;;;;;;;6.03;5.47;;;18.10;99.90;;;;;;4993803;28;20195;-92
2022/06/13 03:40:01;;;;;;;5.47;5.07;;;18.10;99.90;;;;;;4994081;28;20625;-90
2022/06/13 03:42:31;;;;;;;6.07;5.47;;;18.10;99.90;;;;;;4974032;28;20190;-91
2022/06/13 03:45:04;;;;;;;6.47;5.50;;;18.10;99.90;;;;;;5001121;28;20166;-91
2022/06/13 03:47:36;;;;;;;6.57;5.23;;;18.10;99.90;;;;;;5001366;28;20245;-89
2022/06/13 03:50:13;;;;;;;8.57;5.30;;;18.10;99.90;;;;;;5011740;28;20234;-91
2022/06/13 03:52:42;;;;;;;6.03;5.37;;;18.10;99.90;;;;;;4985073;28;20258;-91
2022/06/13 03:55:15;;;;;;;5.83;5.20;;;18.20;99.90;;;;;;5005131;28;20182;-88
2022/06/13 03:57:54;;;;;;;6.13;5.53;;;18.30;99.90;;;;;;5004856;28;20197;-88
2022/06/13 04:00:28;;;;;;;9.33;5.40;;;18.20;99.90;;;;;;5022325;28;20153;-87
2022/06/13 04:02:55;;;;;;;6.10;5.43;;;18.30;99.90;;;;;;5010875;28;20160;-91
2022/06/13 04:05:33;;;;;;;5.53;5.03;;;18.30;99.90;;;;;;4998731;28;20177;-93
2022/06/13 04:08:01;;;;;;;8.97;5.80;;;18.30;99.90;;;;;;4997374;28;20731;-92
2022/06/13 04:10:28;;;;;;;7.20;5.47;;;18.40;99.70;;;;;;4997680;28;20178;-90
2022/06/13 04:13:18;;;;;;;10.23;5.80;;;18.30;99.60;;;;;;4997803;28;20172;-91
2022/06/13 04:16:08;;;;;;;6.13;4.97;;;18.30;99.80;;;;;;4997382;28;20220;-90
2022/06/13 04:19:02;;;;;;;6.00;5.50;;;18.30;99.70;;;;;;4980106;28;20202;-91
2022/06/13 04:21:39;;;;;;;8.07;5.47;;;18.40;99.90;;;;;;5000133;28;20254;-91
2022/06/13 04:24:39;;;;;;;6.20;5.47;;;18.50;99.80;;;;;;4998039;28;20252;-93
2022/06/13 04:27:21;;;;;;;7.60;5.37;;;18.50;99.50;;;;;;4998548;28;20170;-92
2022/06/13 04:29:58;;;;;;;7.50;5.60;;;18.50;99.80;;;;;;4997066;28;20174;-88
2022/06/13 04:32:40;;;;;;;6.20;5.30;;;18.50;99.50;;;;;;5008290;28;20252;-89
2022/06/13 04:35:07;;;;;;;6.70;5.23;;;18.60;99.40;;;;;;4997550;28;20241;-87
2022/06/13 04:37:33;;;;;;;7.17;5.83;;;18.60;99.50;;;;;;4979667;28;20224;-90
2022/06/13 04:40:03;;;;;;;8.33;5.57;;;18.70;99.30;;;;;;4996611;28;20170;-87
2022/06/13 04:42:34;;;;;;;6.47;5.80;;;18.80;99.00;;;;;;4996417;28;20227;-86
2022/06/13 04:45:22;;;;;;;6.73;5.20;;;18.80;98.80;;;;;;4979147;28;20194;-92
2022/06/13 04:47:48;;;;;;;9.17;5.60;;;18.90;98.80;;;;;;4996522;28;20154;-90
2022/06/13 04:50:17;;;;;;;8.13;5.30;;;18.90;98.70;;;;;;4996562;28;20178;-91
2022/06/13 04:52:46;;;;;;;6.00;5.10;;;19.00;98.70;;;;;;4995987;28;20261;-89
2022/06/13 04:55:21;;;;;;;8.90;5.00;;;19.20;98.40;;;;;;4995992;28;20713;-91
2022/06/13 04:57:47;;;;;;;7.70;5.27;;;19.20;98.20;;;;;;4996251;28;20287;-94
2022/06/13 05:00:14;;;;;;;7.77;5.67;;;19.20;98.10;;;;;;4995784;28;20255;-90
2022/06/13 05:02:46;;;;;;;7.40;5.57;;;19.20;98.50;;;;;;4978596;28;20182;-91
2022/06/13 05:05:36;;;;;;;5.63;4.93;;;19.20;98.20;;;;;;4996145;28;20181;-90
2022/06/13 05:08:20;;;;;;;5.97;5.50;;;19.10;98.20;;;;;;4994854;28;20217;-91
2022/06/13 05:10:50;;;;;;;5.87;5.27;;;19.10;98.40;;;;;;4997551;28;20676;-89
2022/06/13 05:13:18;;;;;;;6.87;5.87;;;19.10;98.30;;;;;;5015244;28;20161;-91
2022/06/13 05:15:53;;;;;;;9.60;5.70;;;19.10;98.40;;;;;;5014694;28;20173;-90
2022/06/13 05:18:51;;;;;;;9.60;5.43;;;19.20;98.40;;;;;;5015065;28;20201;-88
2022/06/13 05:21:22;;;;;;;7.70;5.87;;;19.30;98.60;;;;;;4934850;29;20192;-89
2022/06/13 05:24:13;;;;;;;7.87;5.03;;;19.40;98.30;;;;;;4934861;29;20219;-90
2022/06/13 05:26:39;;;;;;;7.33;5.80;;;19.50;98.20;;;;;;4935556;29;20167;-91
2022/06/13 05:29:05;;;;;;;7.40;5.53;;;19.60;98.20;;;;;;4937497;29;20180;-89
2022/06/13 05:31:31;;;;;;;6.43;5.60;;;19.60;98.00;;;;;;4937031;29;20646;-90
2022/06/13 05:33:58;;;;;;;8.07;5.23;;;19.80;98.00;;;;;;4935426;29;20179;-89
2022/06/13 05:36:26;;;;;;;6.43;5.70;;;19.80;97.40;;;;;;4935574;29;20288;-89
2022/06/13 05:38:55;;;;;;;7.23;5.07;;;19.90;97.40;;;;;;4935700;29;20203;-92
2022/06/13 05:41:22;;;;;;;7.73;4.80;;;19.90;97.30;;;;;;4935494;29;20176;-90
2022/06/13 05:43:48;;;;;;;9.13;4.93;;;20.00;97.30;;;;;;4934927;29;20332;-90
2022/06/13 05:46:34;;;;;;;7.10;4.97;;;20.10;97.10;;;;;;4943203;29;20199;-89
2022/06/13 05:49:00;;;;;;;5.60;4.97;;;20.10;97.20;;;;;;4920016;29;20656;-90
2022/06/13 05:51:26;;;;;;;7.17;5.83;;;20.20;97.00;;;;;;4934408;29;20570;-92
2022/06/13 05:53:53;;;;;;;8.83;4.70;;;20.20;96.70;;;;;;4934856;29;20199;-90
2022/06/13 05:56:20;;;;;;;7.73;5.47;;;20.20;96.80;;;;;;4957243;28;20649;-88
2022/06/13 05:58:46;;;;;;;11.90;5.00;;;20.30;96.70;;;;;;5001402;28;20173;-90
2022/06/13 06:01:14;;;;;;;5.07;4.67;;;20.40;96.50;;;;;;5036880;28;20180;-90
2022/06/13 06:03:41;;;;;;;8.20;5.00;;;20.50;96.70;;;;;;5012265;28;20177;-91
2022/06/13 06:06:09;;;;;;;6.20;4.60;;;20.60;96.80;;;;;;5026930;28;20197;-91
2022/06/13 06:08:36;;;;;;;6.10;4.90;;;20.70;96.40;;;;;;5003673;28;20229;-91
2022/06/13 06:11:04;;;;;;;7.63;4.60;;;20.80;96.30;;;;;;5004108;28;20201;-89
2022/06/13 06:13:30;;;;;;;5.80;5.27;;;20.80;96.10;;;;;;5014014;28;20178;-90
2022/06/13 06:15:58;;;;;;;5.60;4.40;;;20.80;96.10;;;;;;4996685;28;20178;-92
2022/06/13 06:18:25;;;;;;;6.73;4.83;;;20.80;95.90;;;;;;4995789;28;20220;-88
2022/06/13 06:20:51;;;;;;;8.03;4.90;;;21.00;95.80;;;;;;4993633;28;20263;-87
2022/06/13 06:23:18;;;;;;;9.37;4.33;;;21.20;95.40;;;;;;4994535;28;20188;-91
2022/06/13 06:25:45;;;;;;;5.27;4.30;;;21.30;95.20;;;;;;4994465;28;20302;-86
2022/06/13 06:28:16;;;;;;;4.23;3.83;;;21.40;94.70;;;;;;4976709;28;20174;-87
2022/06/13 06:30:43;;;;;;;4.37;3.97;;;21.60;94.50;;;;;;4991617;28;20212;-87
2022/06/13 06:33:08;;;;;;;4.50;4.13;;;21.80;94.50;;;;;;5012811;28;20169;-89
2022/06/13 06:35:34;;;;;;;10.17;4.50;;;22.00;94.40;;;;;;5013063;28;20224;-86
2022/06/13 06:38:00;;;;;;;6.30;4.13;;;22.10;94.30;;;;;;5000618;28;20685;-89
2022/06/13 06:40:27;;;;;;;7.37;4.50;;;22.20;94.30;;;;;;5016016;28;20173;-93
2022/06/13 06:42:54;;;;;;;7.90;3.90;;;22.40;94.30;;;;;;5014728;28;20173;-92
2022/06/13 06:45:21;;;;;;;4.20;3.90;;;22.40;94.40;;;;;;5015754;28;20162;-93
2022/06/13 06:47:47;;;;;;;5.83;4.17;;;22.70;94.20;;;;;;5014284;28;20184;-94
2022/06/13 06:50:15;;;;;;;6.33;4.17;;;22.90;94.10;;;;;;5015259;28;20204;-94
2022/06/13 06:52:42;;;;;;;4.68;4.28;;;23.10;93.60;;;;;;5014360;28;20248;-89
2022/06/13 07:00:46;;;;;;;5.18;3.72;;;23.40;93.70;;;;;;5001966;28;20185;-89
2022/06/13 07:03:13;;;;;;;5.70;3.30;;;23.60;92.90;;;;;;4995854;28;20181;-94
2022/06/13 07:05:39;;;;;;;2.92;2.83;;;23.80;91.40;;;;;;4995535;28;20195;-90
2022/06/13 07:08:05;;;;;;;4.65;3.17;;;24.00;90.00;;;;;;4995616;28;20302;-92
2022/06/13 07:10:31;;;;;;;3.50;2.63;;;24.20;88.90;;;;;;4994918;28;20170;-93
2022/06/13 07:13:01;;;;;;;2.30;2.20;;;24.60;84.90;;;;;;4999030;28;20188;-91
2022/06/13 07:15:27;;;;;;;3.20;2.30;;;24.70;82.00;;;;;;5002910;28;20161;-92
2022/06/13 07:17:53;;;;;;;2.15;2.10;;;24.80;82.10;;;;;;4995119;28;20209;-86
2022/06/13 07:20:19;;;;;;;2.30;2.10;;;24.90;81.10;;;;;;4977107;28;20284;-90
2022/06/13 07:22:49;;;;;;;2.10;2.00;;;25.00;80.50;;;;;;4995343;28;20177;-92
2022/06/13 07:25:18;;;;;;;2.50;2.30;;;25.10;79.60;;;;;;5003500;28;20177;-89
2022/06/13 07:27:44;;;;;;;2.30;2.20;;;25.10;79.80;;;;;;5012756;28;20184;-90
2022/06/13 07:30:11;;;;;;;2.13;2.03;;;25.00;79.60;;;;;;5006249;28;20220;-89
2022/06/13 07:32:37;;;;;;;2.30;2.20;;;24.90;78.90;;;;;;4995276;28;20261;-90
2022/06/13 07:35:04;;;;;;;2.17;2.08;;;24.90;78.90;;;;;;5009900;28;20189;-85
2022/06/13 07:40:14;;;;;;;2.53;2.20;;;24.60;80.00;;;;;;5003844;28;20165;-87
2022/06/13 07:42:44;;;;;;;2.28;2.17;;;24.60;79.50;;;;;;5001155;28;20174;-89
2022/06/13 07:45:20;;;;;;;2.58;2.00;;;24.60;79.30;;;;;;4996061;28;20524;-91
2022/06/13 07:47:46;;;;;;;4.80;2.28;;;24.60;79.40;;;;;;4996754;28;20191;-87
2022/06/13 07:50:16;;;;;;;3.53;2.22;;;24.60;79.50;;;;;;4977915;28;20272;-91
2022/06/13 07:52:42;;;;;;;2.20;2.03;;;24.60;80.40;;;;;;4990696;28;20664;-88
2022/06/13 07:55:08;;;;;;;6.93;2.10;;;24.70;80.00;;;;;;5013208;28;20190;-86
2022/06/13 07:57:34;;;;;;;2.13;2.03;;;24.70;79.20;;;;;;4990122;28;20205;-92
2022/06/13 08:00:00;;;;;;;1.92;1.80;;;24.60;79.50;;;;;;4995200;28;20177;-90
2022/06/13 08:02:31;;;;;;;2.47;2.05;;;24.60;79.50;;;;;;4998083;28;20645;-89
2022/06/13 08:04:57;;;;;;;2.17;2.00;;;24.60;80.70;;;;;;5016567;28;20166;-90
2022/06/13 08:07:22;;;;;;;2.15;2.00;;;24.70;80.20;;;;;;5012023;28;20248;-85
2022/06/13 08:09:48;;;;;;;1.98;1.88;;;24.80;80.40;;;;;;4997162;28;20159;-91
2022/06/13 08:12:17;;;;;;;2.13;2.03;;;24.90;79.50;;;;;;4993522;28;20515;-87
2022/06/13 08:14:47;;;;;;;2.63;2.10;;;25.10;79.00;;;;;;4976455;28;20273;-88
2022/06/13 08:17:14;;;;;;;2.20;2.10;;;25.10;78.80;;;;;;4993708;28;20322;-90
2022/06/13 08:19:40;;;;;;;2.80;2.60;;;25.10;78.90;;;;;;4975902;28;20174;-89
2022/06/13 08:22:06;;;;;;;3.08;2.03;;;25.20;77.80;;;;;;4993477;28;20178;-89
2022/06/13 08:24:32;;;;;;;2.25;2.15;;;25.20;78.30;;;;;;4995821;28;20194;-89
2022/06/13 08:26:57;;;;;;;1.90;1.90;;;25.40;78.50;;;;;;4993848;28;20178;-90
2022/06/13 08:29:23;;;;;;;2.30;2.10;;;25.40;78.00;;;;;;4993785;28;20174;-86
2022/06/13 08:31:49;;;;;;;2.33;1.67;;;25.30;76.70;;;;;;4993421;28;20717;-89
2022/06/13 08:34:15;;;;;;;2.40;2.30;;;25.40;76.60;;;;;;4993621;28;20609;-93
2022/06/13 08:36:40;;;;;;;2.33;2.22;;;25.50;76.90;;;;;;4994580;28;20696;-93
2022/06/13 08:39:06;;;;;;;6.10;2.20;;;25.70;78.20;;;;;;4977478;28;20182;-89
2022/06/13 08:41:55;;;;;;;2.28;1.90;;;25.90;77.30;;;;;;5008836;28;20170;-93
2022/06/13 08:44:30;;;;;;;2.10;2.00;;;25.80;76.70;;;;;;4999989;28;20174;-88
2022/06/13 08:47:04;;;;;;;2.47;2.00;;;25.70;77.20;;;;;;5017104;28;20165;-93
2022/06/13 08:49:41;;;;;;;4.15;2.13;;;25.60;77.30;;;;;;5000547;28;20241;-93
2022/06/13 08:52:28;;;;;;;2.70;2.30;;;25.50;76.90;;;;;;4998069;28;20529;-94
2022/06/13 08:55:17;;;;;;;2.47;2.00;;;25.50;78.90;;;;;;4998004;28;20186;-94
2022/06/13 08:58:05;;;;;;;2.65;2.30;;;25.50;77.50;;;;;;4986272;28;20232;-93
2022/06/13 09:00:33;;;;;;;2.65;2.10;;;25.60;78.50;;;;;;4979951;28;20188;-93
2022/06/13 09:03:16;;;;;;;3.10;2.03;;;25.70;77.80;;;;;;4979937;28;20638;-94
2022/06/13 09:06:01;;;;;;;2.67;1.92;;;25.90;77.10;;;;;;4996917;28;20170;-94
2022/06/13 09:08:51;;;;;;;1.88;1.77;;;25.90;76.50;;;;;;4996551;28;20221;-93
2022/06/13 09:11:28;;;;;;;2.78;1.90;;;25.90;76.80;;;;;;4979405;28;20170;-93
2022/06/13 09:14:15;;;;;;;2.67;1.85;;;25.80;76.00;;;;;;5000114;28;20201;-90
2022/06/13 09:16:46;;;;;;;1.83;1.73;;;25.90;76.40;;;;;;5010404;28;20661;-92
2022/06/13 09:19:34;;;;;;;1.80;1.80;;;26.00;76.90;;;;;;4997504;28;20162;-91
2022/06/13 09:22:08;;;;;;;1.80;1.77;;;25.90;76.10;;;;;;4997918;28;20180;-91
2022/06/13 09:25:00;;;;;;;2.28;2.00;;;25.90;74.70;;;;;;5020166;28;20221;-87
2022/06/13 09:27:50;;;;;;;2.58;1.70;;;25.80;75.70;;;;;;4989485;28;20181;-92
2022/06/13 09:30:21;;;;;;;4.57;2.10;;;25.80;76.30;;;;;;4998057;28;20228;-93
2022/06/13 09:32:57;;;;;;;1.92;1.77;;;25.80;76.30;;;;;;4999078;28;20224;-93
2022/06/13 09:35:25;;;;;;;2.13;2.03;;;25.60;74.50;;;;;;4994903;28;20184;-88
2022/06/13 09:38:15;;;;;;;2.20;2.10;;;25.60;77.50;;;;;;5015447;28;20229;-89
2022/06/13 09:41:19;;;;;;;2.38;2.28;;;25.50;77.00;;;;;;4998078;28;20162;-93
2022/06/13 09:44:09;;;;;;;2.05;1.95;;;25.60;78.10;;;;;;4982360;28;20200;-92
2022/06/13 09:47:00;;;;;;;3.58;1.70;;;25.60;78.40;;;;;;4981298;28;20189;-93
2022/06/13 09:49:51;;;;;;;2.00;1.90;;;25.70;76.50;;;;;;4998288;28;20185;-92
2022/06/13 09:52:19;;;;;;;1.90;1.80;;;25.70;75.10;;;;;;4999239;28;20162;-91
2022/06/13 09:54:54;;;;;;;2.00;1.90;;;25.80;73.70;;;;;;4981718;28;20180;-92
2022/06/13 09:57:32;;;;;;;3.33;1.95;;;25.80;73.50;;;;;;4998853;28;20212;-93
2022/06/13 10:00:25;;;;;;;1.88;1.77;;;25.80;73.20;;;;;;4999317;28;20166;-93
2022/06/13 10:03:30;;;;;;;2.10;2.00;;;25.80;73.10;;;;;;4996718;28;20173;-88
2022/06/13 10:06:21;;;;;;;3.17;1.83;;;25.70;76.20;;;;;;4998165;28;20178;-88
2022/06/13 10:08:54;;;;;;;2.22;2.10;;;25.70;75.60;;;;;;5013032;28;20305;-83
2022/06/13 10:11:43;;;;;;;3.13;2.10;;;25.70;76.50;;;;;;5012315;28;20166;-85
2022/06/13 10:14:25;;;;;;;5.85;2.28;;;25.60;76.60;;;;;;4981447;28;20173;-91
2022/06/13 10:16:54;;;;;;;2.15;1.98;;;25.60;78.00;;;;;;4995678;28;20201;-88
2022/06/13 10:19:41;;;;;;;2.55;2.08;;;25.70;77.70;;;;;;4977938;28;20268;-88
2022/06/13 10:22:19;;;;;;;5.03;2.42;;;25.70;76.70;;;;;;4996157;28;20253;-85
2022/06/13 10:25:01;;;;;;;2.38;2.20;;;25.70;77.00;;;;;;4995774;28;20158;-89
2022/06/13 10:27:55;;;;;;;4.13;2.60;;;25.60;77.00;;;;;;4996419;28;20170;-91
2022/06/13 10:30:34;;;;;;;2.17;2.08;;;25.60;77.50;;;;;;4998175;28;20174;-91
2022/06/13 10:33:21;;;;;;;1.98;1.88;;;25.50;75.20;;;;;;4997566;28;20158;-93
2022/06/13 10:36:24;;;;;;;2.20;2.00;;;25.50;76.70;;;;;;4979011;28;20626;-92
2022/06/13 10:39:10;;;;;;;3.80;3.60;;;25.50;75.30;;;;;;4998477;28;20178;-91
2022/06/13 10:41:39;;;;;;;3.05;1.90;;;25.50;76.90;;;;;;4986777;28;20177;-93
2022/06/13 10:44:09;;;;;;;6.07;2.92;;;25.60;75.40;;;;;;4996131;28;20173;-92
2022/06/13 10:46:35;;;;;;;2.80;2.38;;;25.70;76.80;;;;;;4980025;28;20189;-91
2022/06/13 10:49:15;;;;;;;5.18;3.05;;;25.80;76.20;;;;;;5002798;28;20194;-91
2022/06/13 10:51:43;;;;;;;2.55;2.10;;;25.70;74.80;;;;;;4996419;28;20174;-93
2022/06/13 10:54:17;;;;;;;4.05;3.03;;;25.70;74.80;;;;;;4997861;28;20216;-95
2022/06/13 10:56:56;;;;;;;4.05;2.40;;;25.70;77.30;;;;;;4995478;28;20653;-96
2022/06/13 10:59:28;;;;;;;2.70;2.30;;;25.70;75.70;;;;;;4997381;28;20174;-92
2022/06/13 11:02:00;;;;;;;4.80;4.50;;;25.60;74.70;;;;;;4978541;28;20613;-91
2022/06/13 11:04:30;;;;;;;5.65;4.20;;;25.50;74.20;;;;;;4996711;28;20190;-92
2022/06/13 11:07:04;;;;;;;7.35;5.63;;;25.60;76.30;;;;;;4998687;28;20165;-91
2022/06/13 11:09:40;;;;;;;4.72;4.32;;;25.70;82.90;;;;;;4998777;28;20220;-88
2022/06/13 11:12:33;;;;;;;3.45;3.15;;;25.60;84.10;;;;;;5008770;28;20181;-87
2022/06/13 11:24:16;;;;;;;4.13;3.10;;;25.90;85.00;;;;;;5015348;28;20176;-88
2022/06/13 11:29:31;;;;;;;3.13;2.85;;;26.00;81.90;;;;;;5015669;28;20230;-91
2022/06/13 11:31:59;;;;;;;3.20;2.65;;;26.10;82.80;;;;;;5015706;28;20688;-91
2022/06/13 11:34:28;;;;;;;5.32;2.85;;;26.20;82.10;;;;;;5015427;28;20169;-87
2022/06/13 11:37:15;;;;;;;3.55;2.45;;;26.20;80.70;;;;;;5015626;28;20260;-90
2022/06/13 11:39:45;;;;;;;2.70;2.60;;;26.30;81.40;;;;;;4997871;28;20180;-85
2022/06/13 11:42:27;;;;;;;3.45;2.53;;;26.30;83.30;;;;;;4997309;28;20177;-89
2022/06/13 11:45:19;;;;;;;4.38;2.40;;;26.30;82.30;;;;;;5016003;28;20165;-89
2022/06/13 11:47:50;;;;;;;3.85;2.78;;;26.30;82.70;;;;;;4997834;28;20217;-85
2022/06/13 11:50:18;;;;;;;2.97;2.50;;;26.20;81.90;;;;;;5014997;28;20189;-88
2022/06/13 11:55:32;;;;;;;3.80;2.40;;;26.10;80.80;;;;;;5015122;28;20173;-91
2022/06/13 11:58:03;;;;;;;2.72;2.50;;;26.00;82.10;;;;;;5015020;28;20292;-92
2022/06/13 12:00:36;;;;;;;4.20;2.72;;;25.90;80.40;;;;;;5013438;28;20620;-89
2022/06/13 12:03:18;;;;;;;2.50;2.35;;;25.80;82.10;;;;;;5013542;28;20165;-91
2022/06/13 12:05:44;;;;;;;4.70;2.58;;;25.70;82.90;;;;;;5014293;28;20154;-93
2022/06/13 12:08:16;;;;;;;4.32;2.72;;;25.70;83.10;;;;;;5014492;28;20221;-90
2022/06/13 12:10:58;;;;;;;3.75;2.75;;;25.60;83.00;;;;;;5014188;28;20169;-93
2022/06/13 12:13:25;;;;;;;2.90;2.70;;;25.60;84.50;;;;;;5025638;28;20169;-92
2022/06/13 12:16:13;;;;;;;2.40;2.33;;;25.50;84.90;;;;;;5032222;28;20197;-88
2022/06/13 12:18:59;;;;;;;3.30;2.40;;;25.60;84.40;;;;;;5034534;28;20205;-88
2022/06/13 12:21:46;;;;;;;2.70;2.55;;;25.70;83.90;;;;;;5030859;28;20303;-92
2022/06/13 12:24:29;;;;;;;2.75;2.55;;;25.90;83.80;;;;;;5027468;28;20656;-92
2022/06/13 12:27:03;;;;;;;3.22;3.08;;;26.10;84.50;;;;;;5020180;28;20162;-89
2022/06/13 12:29:48;;;;;;;3.72;3.42;;;26.40;84.30;;;;;;5018731;28;20166;-87
2022/06/13 12:32:36;;;;;;;4.70;4.30;;;26.60;83.80;;;;;;5001123;28;20648;-92
2022/06/13 12:35:29;;;;;;;4.80;3.55;;;26.70;83.40;;;;;;5019059;28;20158;-92
2022/06/13 12:38:19;;;;;;;4.63;3.10;;;26.60;83.10;;;;;;5000043;28;20236;-91
2022/06/13 12:41:10;;;;;;;4.22;3.92;;;26.50;81.60;;;;;;4999836;28;20524;-92
2022/06/13 12:43:58;;;;;;;5.13;3.60;;;26.30;82.20;;;;;;5016955;28;20528;-91
2022/06/13 12:46:46;;;;;;;5.35;3.35;;;26.40;80.00;;;;;;5000042;28;20180;-92
2022/06/13 12:49:31;;;;;;;3.45;3.08;;;26.50;81.80;;;;;;4986756;28;20276;-90
2022/06/13 12:52:06;;;;;;;5.45;2.80;;;26.40;79.90;;;;;;5017996;28;20168;-91
2022/06/13 12:54:40;;;;;;;2.70;2.50;;;26.40;80.30;;;;;;5017863;28;20161;-88
2022/06/13 12:57:32;;;;;;;3.28;2.95;;;26.30;79.30;;;;;;5013020;28;20209;-88
2022/06/13 13:00:07;;;;;;;4.65;3.00;;;26.30;77.90;;;;;;4938724;29;20255;-84
2022/06/13 13:02:57;;;;;;;5.35;3.42;;;26.40;78.20;;;;;;4958926;29;20183;-86
2022/06/13 13:05:44;;;;;;;3.08;2.70;;;26.70;78.70;;;;;;4944558;29;20196;-91
2022/06/13 13:08:18;;;;;;;3.50;2.70;;;27.00;77.30;;;;;;4937129;29;20238;-91
2022/06/13 13:11:11;;;;;;;5.82;2.85;;;27.40;77.30;;;;;;4937126;29;20226;-91
2022/06/13 13:13:49;;;;;;;5.55;3.17;;;27.70;77.60;;;;;;4937823;29;20168;-90
2022/06/13 13:16:26;;;;;;;6.05;3.00;;;27.80;77.30;;;;;;4921779;29;20175;-93
2022/06/13 13:19:15;;;;;;;2.60;2.40;;;27.90;77.20;;;;;;4937350;29;20204;-88
2022/06/13 13:21:54;;;;;;;4.07;2.88;;;27.80;76.60;;;;;;4916275;29;20198;-88
2022/06/13 13:24:26;;;;;;;5.65;3.00;;;27.50;76.60;;;;;;4945956;29;20206;-89
2022/06/13 13:27:07;;;;;;;3.67;2.80;;;27.10;80.50;;;;;;4945727;29;20263;-89
2022/06/13 13:29:54;;;;;;;2.67;2.47;;;26.80;79.40;;;;;;4929147;29;20655;-89
2022/06/13 13:32:56;;;;;;;5.50;2.78;;;26.60;77.00;;;;;;4941807;29;20262;-89
2022/06/13 13:35:41;;;;;;;3.00;2.80;;;26.50;76.20;;;;;;4942512;29;20270;-85
2022/06/13 13:38:20;;;;;;;3.25;3.03;;;26.30;82.20;;;;;;5029723;28;20197;-90
2022/06/13 13:41:18;;;;;;;3.05;2.85;;;25.90;85.40;;;;;;5033473;28;20192;-87
2022/06/13 13:43:53;;;;;;;2.70;2.58;;;25.80;87.80;;;;;;4985705;28;20181;-92
2022/06/13 13:46:32;;;;;;;3.15;2.90;;;25.60;88.80;;;;;;4999807;28;20177;-91
2022/06/13 13:49:05;;;;;;;3.25;2.70;;;25.50;90.10;;;;;;5016998;28;20165;-93
2022/06/13 13:51:46;;;;;;;3.17;2.80;;;25.50;89.40;;;;;;5018914;28;20211;-92